Terminal Aerodrome Forecast
Issued by NWS

Home | Current Version | Previous Version | Text Only | Print | Product List | Glossary On
Versions: 1 2 3 4 5 6 7 8 9 10 11 12 13 14 15 16 17 18 19 20 21 22 23 24 25 26 27 28 29 30 31 32 33 34 35 36 37
000
FTUS45 KBOU 312003 AAA
TAFAPA
TAF AMD
KAPA 312003Z 3120/0118 32005KT P6SM BKN040 BKN100
      TEMPO 3120/3121 BKN030
     FM312100 03007KT P6SM VCSH SCT035 BKN040
      TEMPO 3121/0101 5SM -SHRASN BKN025 OVC040
     FM010400 02014G20KT P6SM VCSH SCT020 OVC040
     FM010600 02012KT 3SM -SHSN SCT008 BKN014 OVC020
      TEMPO 0106/0110 1/2SM SHSN VV005
     FM011400 05007KT P6SM VCSH SCT012 BKN022
     FM011600 07007KT P6SM SCT020 BKN040=

USA.gov is the U.S. government's official web portal to all federal, state and local government web resources and services.